createdAt,value
2023-05-02T00:01:38.077Z,36.70
2023-05-02T00:04:01.955Z,37.53
2023-05-02T00:06:25.901Z,37.65
2023-05-02T00:08:50.680Z,41.03
2023-05-02T00:11:14.443Z,42.45
2023-05-02T00:13:37.698Z,39.85
2023-05-02T00:16:02.391Z,40.17
2023-05-02T00:18:25.730Z,41.83
2023-05-02T00:20:49.111Z,40.53
2023-05-02T00:23:13.262Z,42.38
2023-05-02T00:25:36.555Z,44.65
2023-05-02T00:27:59.756Z,44.28
2023-05-02T00:30:23.233Z,43.60
2023-05-02T00:32:47.861Z,46.55
2023-05-02T00:35:11.842Z,45.63
2023-05-02T00:37:35.963Z,45.25
2023-05-02T00:40:00.595Z,45.00
2023-05-02T00:42:24.100Z,46.40
2023-05-02T00:44:47.445Z,45.42
2023-05-02T00:47:10.794Z,46.00
2023-05-02T00:49:35.452Z,46.80
2023-05-02T00:51:59.526Z,45.72
2023-05-02T00:54:22.841Z,45.40
2023-05-02T00:56:47.134Z,41.78
2023-05-02T00:59:11.750Z,45.97
2023-05-02T01:01:45.295Z,45.72
2023-05-02T01:04:24.709Z,45.17
2023-05-02T01:07:04.006Z,48.10
2023-05-02T01:09:39.043Z,46.30
2023-05-02T01:12:04.434Z,47.28
2023-05-02T01:14:32.640Z,45.45
2023-05-02T01:16:59.179Z,46.47
2023-05-02T01:19:30.795Z,44.65
2023-05-02T01:21:56.447Z,42.55
2023-05-02T01:24:27.897Z,42.97
2023-05-02T01:27:02.540Z,40.72
2023-05-02T01:29:30.867Z,41.60
2023-05-02T01:31:55.206Z,40.40
2023-05-02T01:34:22.674Z,41.60
2023-05-02T01:36:48.657Z,40.95
2023-05-02T01:39:15.492Z,40.00
2023-05-02T01:41:39.784Z,40.88
2023-05-02T01:44:05.136Z,38.92
2023-05-02T01:46:35.492Z,41.60
2023-05-02T01:49:00.500Z,39.97
2023-05-02T01:51:29.775Z,36.25
2023-05-02T01:53:54.376Z,36.60
2023-05-02T01:56:19.582Z,35.65
2023-05-02T01:58:43.300Z,36.60
2023-05-02T02:01:07.542Z,37.88
2023-05-02T02:03:33.089Z,37.15
2023-05-02T02:05:57.944Z,36.22
2023-05-02T02:08:21.225Z,36.35
2023-05-02T02:10:51.618Z,34.58
2023-05-02T02:13:19.597Z,32.33
2023-05-02T02:15:44.940Z,35.45
2023-05-02T02:18:13.608Z,34.50
2023-05-02T02:20:39.097Z,36.05
2023-05-02T02:23:08.118Z,35.35
2023-05-02T02:25:32.499Z,33.17
2023-05-02T02:27:56.368Z,35.50
2023-05-02T02:30:19.577Z,34.72
2023-05-02T02:32:42.946Z,34.58
2023-05-02T02:35:08.079Z,33.65
2023-05-02T02:37:35.037Z,36.13
2023-05-02T02:40:07.167Z,34.25
2023-05-02T02:42:40.121Z,33.58
2023-05-02T02:45:17.930Z,32.55
2023-05-02T02:47:48.760Z,33.40
2023-05-02T02:50:18.569Z,32.65
2023-05-02T02:52:54.922Z,31.73
2023-05-02T02:55:35.716Z,32.15
2023-05-02T02:58:08.987Z,33.38
2023-05-02T03:00:33.904Z,34.92
2023-05-02T03:02:57.877Z,31.88
2023-05-02T03:05:22.753Z,33.63
2023-05-02T03:07:48.081Z,33.40
2023-05-02T03:10:11.917Z,32.97
2023-05-02T03:12:36.257Z,30.95
2023-05-02T03:15:13.785Z,32.28
2023-05-02T03:17:37.930Z,32.17
2023-05-02T03:20:01.452Z,32.20
2023-05-02T03:22:24.955Z,32.65
2023-05-02T03:24:49.923Z,31.23
2023-05-02T03:27:13.221Z,30.30
2023-05-02T03:29:38.547Z,32.13
2023-05-02T03:32:02.388Z,32.25
2023-05-02T03:34:25.740Z,29.30
2023-05-02T03:36:50.621Z,30.73
2023-05-02T03:39:13.993Z,29.30
2023-05-02T03:41:39.193Z,29.63
2023-05-02T03:44:06.373Z,29.77
2023-05-02T03:46:29.917Z,28.73
2023-05-02T03:48:53.292Z,28.50
2023-05-02T03:51:16.636Z,28.05
2023-05-02T03:53:42.354Z,27.92
2023-05-02T03:56:07.996Z,27.50
2023-05-02T03:58:42.576Z,26.00
2023-05-02T04:01:16.117Z,24.52
2023-05-02T04:03:42.134Z,23.98
2023-05-02T04:06:07.062Z,22.45
2023-05-02T04:08:30.780Z,21.17
2023-05-02T04:10:54.514Z,21.45
2023-05-02T04:13:18.228Z,21.75
2023-05-02T04:15:46.705Z,21.58
2023-05-02T04:18:13.447Z,20.73
2023-05-02T04:20:37.425Z,20.98
2023-05-02T04:23:00.846Z,20.63
2023-05-02T04:25:24.475Z,20.92
2023-05-02T04:27:50.248Z,20.48
2023-05-02T04:30:16.472Z,21.27
2023-05-02T04:32:46.543Z,22.25
2023-05-02T04:35:11.007Z,21.45
2023-05-02T04:37:35.230Z,22.88
2023-05-02T04:39:58.770Z,23.55
2023-05-02T04:42:25.046Z,25.20
2023-05-02T04:45:08.582Z,24.45
2023-05-02T04:47:32.171Z,24.85
2023-05-02T04:49:57.972Z,23.73
2023-05-02T04:52:21.565Z,25.88
2023-05-02T04:54:44.820Z,27.35
2023-05-02T04:57:09.978Z,28.20
2023-05-02T04:59:36.525Z,26.73
2023-05-02T05:02:00.096Z,27.52
2023-05-02T05:04:23.565Z,29.42
2023-05-02T05:06:49.218Z,28.45
2023-05-02T05:09:13.303Z,27.48
2023-05-02T05:11:36.586Z,29.58
2023-05-02T05:14:00.732Z,31.50
2023-05-02T05:16:25.155Z,25.52
2023-05-02T05:18:49.565Z,25.63
2023-05-02T05:21:12.991Z,21.50
2023-05-02T05:23:39.281Z,18.25
2023-05-02T05:26:11.384Z,13.77
2023-05-02T05:28:36.918Z,12.27
2023-05-02T05:31:06.358Z,11.27
2023-05-02T05:33:30.064Z,9.88
2023-05-02T05:35:53.418Z,9.13
2023-05-02T05:38:16.694Z,10.20
2023-05-02T05:40:43.228Z,9.15
2023-05-02T05:43:06.602Z,8.77
2023-05-02T05:45:33.214Z,8.60
2023-05-02T05:47:56.712Z,8.93
2023-05-02T05:50:22.491Z,7.88
2023-05-02T05:52:45.801Z,8.32
2023-05-02T05:55:11.113Z,7.70
2023-05-02T05:57:35.844Z,6.55
2023-05-02T05:59:59.300Z,6.80
2023-05-02T06:02:23.393Z,8.57
2023-05-02T06:04:47.176Z,7.00
2023-05-02T06:07:13.569Z,7.07
2023-05-02T06:09:36.857Z,6.25
2023-05-02T06:12:02.147Z,6.03
2023-05-02T06:14:29.028Z,6.35
2023-05-02T06:16:52.471Z,5.88
2023-05-02T06:19:15.976Z,5.15
2023-05-02T06:21:39.372Z,5.97
2023-05-02T06:24:03.469Z,4.10
2023-05-02T06:26:26.735Z,5.07
2023-05-02T06:28:50.425Z,4.45
2023-05-02T06:31:16.326Z,4.60
2023-05-02T06:33:40.105Z,4.70
2023-05-02T06:36:03.520Z,4.50
2023-05-02T06:38:27.048Z,4.45
2023-05-02T06:40:50.769Z,4.88
2023-05-02T06:43:14.224Z,4.85
2023-05-02T06:45:37.530Z,4.50
2023-05-02T06:48:02.584Z,5.07
2023-05-02T06:50:25.900Z,4.30
2023-05-02T06:52:49.169Z,4.45
2023-05-02T06:55:12.463Z,5.03
2023-05-02T06:57:35.763Z,4.22
2023-05-02T06:59:59.142Z,5.50
2023-05-02T07:02:22.737Z,5.03
2023-05-02T07:04:47.519Z,4.38
2023-05-02T07:07:11.241Z,4.82
2023-05-02T07:09:34.542Z,4.30
2023-05-02T07:11:57.849Z,4.68
2023-05-02T07:14:21.628Z,3.47
2023-05-02T07:16:44.897Z,3.35
2023-05-02T07:19:08.376Z,3.15
2023-05-02T07:21:33.677Z,2.72
2023-05-02T07:23:57.685Z,2.70
2023-05-02T07:26:21.106Z,2.90
2023-05-02T07:28:44.446Z,2.95
2023-05-02T07:31:08.063Z,3.00
2023-05-02T07:33:31.316Z,3.25
2023-05-02T07:35:54.554Z,3.38
2023-05-02T07:38:19.163Z,2.90
2023-05-02T07:40:43.453Z,3.50
2023-05-02T07:43:07.523Z,3.10
2023-05-02T07:45:31.957Z,2.78
2023-05-02T07:47:55.316Z,3.13
2023-05-02T07:50:18.792Z,3.08
2023-05-02T07:52:42.081Z,3.40
2023-05-02T07:55:08.382Z,3.35
2023-05-02T07:57:31.656Z,3.58
2023-05-02T07:59:57.143Z,3.35
2023-05-02T08:02:21.655Z,3.53
2023-05-02T08:04:45.394Z,4.15
2023-05-02T08:07:08.722Z,3.45
2023-05-02T08:09:32.025Z,3.70
2023-05-02T08:11:56.670Z,3.45
2023-05-02T08:14:19.977Z,4.15
2023-05-02T08:16:46.123Z,4.40
2023-05-02T08:19:09.919Z,4.00
2023-05-02T08:21:33.255Z,4.43
2023-05-02T08:24:00.028Z,4.18
2023-05-02T08:26:24.756Z,4.30
2023-05-02T08:28:49.315Z,4.40
2023-05-02T08:31:12.795Z,4.05
2023-05-02T08:33:36.034Z,4.00
2023-05-02T08:36:00.272Z,4.22
2023-05-02T08:38:23.517Z,3.75
2023-05-02T08:40:47.275Z,3.92
2023-05-02T08:43:14.676Z,3.65
2023-05-02T08:45:42.539Z,2.85
2023-05-02T08:48:10.423Z,3.22
2023-05-02T08:50:37.523Z,4.03
2023-05-02T08:53:01.096Z,3.50
2023-05-02T08:55:27.803Z,3.22
2023-05-02T08:57:51.313Z,4.07
2023-05-02T09:00:16.592Z,4.47
2023-05-02T09:02:55.787Z,4.28
2023-05-02T09:05:25.156Z,4.22
2023-05-02T09:07:50.365Z,4.18
2023-05-02T09:10:13.920Z,4.25
2023-05-02T09:12:37.189Z,4.00
2023-05-02T09:15:16.405Z,3.97
2023-05-02T09:17:48.563Z,4.22
2023-05-02T09:20:13.001Z,4.28
2023-05-02T09:22:36.482Z,3.65
2023-05-02T09:25:00.034Z,3.13
2023-05-02T09:27:23.965Z,4.13
2023-05-02T09:29:47.283Z,3.33
2023-05-02T09:32:15.655Z,4.32
2023-05-02T09:34:40.314Z,3.17
2023-05-02T09:37:05.499Z,3.53
2023-05-02T09:39:30.073Z,3.90
2023-05-02T09:41:54.112Z,4.03
2023-05-02T09:44:19.538Z,3.33
2023-05-02T09:46:44.316Z,3.45
2023-05-02T09:49:07.586Z,3.35
2023-05-02T09:51:32.298Z,2.92
2023-05-02T09:53:56.173Z,3.40
2023-05-02T09:56:20.103Z,3.63
2023-05-02T09:58:43.514Z,3.72
2023-05-02T10:01:06.869Z,3.88
2023-05-02T10:03:32.101Z,4.07
2023-05-02T10:05:55.738Z,3.70
2023-05-02T10:08:21.187Z,3.85
2023-05-02T10:10:52.204Z,3.50
2023-05-02T10:13:18.451Z,4.15
2023-05-02T10:15:45.779Z,4.22
2023-05-02T10:18:15.163Z,3.80
2023-05-02T10:20:44.907Z,3.90
2023-05-02T10:23:09.688Z,3.53
2023-05-02T10:25:35.285Z,3.65
2023-05-02T10:27:59.845Z,3.40
2023-05-02T10:30:23.989Z,3.58
2023-05-02T10:32:49.113Z,3.35
2023-05-02T10:35:13.735Z,3.42
2023-05-02T10:37:40.177Z,4.18
2023-05-02T10:40:04.328Z,3.50
2023-05-02T10:42:30.045Z,3.65
2023-05-02T10:44:55.507Z,3.92
2023-05-02T10:47:22.493Z,3.88
2023-05-02T10:49:52.889Z,3.35
2023-05-02T10:52:29.132Z,3.22
2023-05-02T10:54:53.270Z,3.28
2023-05-02T10:57:16.506Z,3.30
2023-05-02T10:59:43.100Z,3.03
2023-05-02T11:02:07.465Z,3.45
2023-05-02T11:05:04.199Z,3.65
2023-05-02T11:07:27.939Z,2.78
2023-05-02T11:09:51.152Z,3.22
2023-05-02T11:12:48.947Z,3.65
2023-05-02T11:15:13.666Z,3.50
2023-05-02T11:18:01.383Z,3.60
2023-05-02T11:20:27.758Z,3.35
2023-05-02T11:22:52.010Z,3.50
2023-05-02T11:25:38.172Z,3.63
2023-05-02T11:28:02.030Z,3.28
2023-05-02T11:30:41.708Z,3.17
2023-05-02T11:33:20.139Z,3.30
2023-05-02T11:35:50.633Z,3.22
2023-05-02T11:38:18.080Z,3.20
2023-05-02T11:40:41.815Z,3.15
2023-05-02T11:43:14.967Z,3.17
2023-05-02T11:45:40.220Z,3.00
2023-05-02T11:48:04.131Z,3.30
2023-05-02T11:50:30.359Z,3.30
2023-05-02T11:52:53.731Z,3.00
2023-05-02T11:55:17.131Z,3.17
2023-05-02T11:57:41.253Z,2.83
2023-05-02T12:00:06.230Z,3.30
2023-05-02T12:02:41.302Z,3.13
2023-05-02T12:05:06.630Z,2.85
2023-05-02T12:07:37.865Z,2.88
2023-05-02T12:10:01.194Z,2.60
2023-05-02T12:12:25.036Z,2.40
2023-05-02T12:14:48.383Z,2.92
2023-05-02T12:17:11.823Z,2.38
2023-05-02T12:19:37.973Z,2.70
2023-05-02T12:22:01.356Z,2.67
2023-05-02T12:24:24.735Z,2.70
2023-05-02T12:26:48.824Z,3.03
2023-05-02T12:29:12.912Z,2.25
2023-05-02T12:31:36.202Z,2.60
2023-05-02T12:34:00.494Z,2.63
2023-05-02T12:36:25.548Z,2.50
2023-05-02T12:38:55.100Z,2.65
2023-05-02T12:41:18.803Z,2.67
2023-05-02T12:43:49.755Z,1.92
2023-05-02T12:46:13.518Z,2.50
2023-05-02T12:48:37.170Z,2.30
2023-05-02T12:51:00.508Z,2.88
2023-05-02T12:53:47.451Z,2.38
2023-05-02T12:56:11.409Z,2.42
2023-05-02T12:58:43.896Z,2.92
2023-05-02T13:01:10.105Z,2.60
2023-05-02T13:03:33.504Z,2.65
2023-05-02T13:05:56.838Z,2.58
2023-05-02T13:08:20.763Z,2.40
2023-05-02T13:10:45.456Z,3.20
2023-05-02T13:13:08.729Z,2.78
2023-05-02T13:15:33.351Z,2.60
2023-05-02T13:17:56.884Z,2.75
2023-05-02T13:20:20.525Z,3.03
2023-05-02T13:22:43.805Z,3.25
2023-05-02T13:25:09.871Z,2.97
2023-05-02T13:27:35.059Z,3.08
2023-05-02T13:29:58.473Z,2.50
2023-05-02T13:32:22.044Z,2.67
2023-05-02T13:34:45.477Z,2.67
2023-05-02T13:37:08.737Z,3.15
2023-05-02T13:39:31.996Z,3.13
2023-05-02T13:41:55.363Z,3.28
2023-05-02T13:44:19.983Z,3.65
2023-05-02T13:46:43.411Z,3.38
2023-05-02T13:49:07.330Z,3.22
2023-05-02T13:51:31.482Z,3.88
2023-05-02T13:53:55.215Z,3.47
2023-05-02T13:56:18.609Z,3.22
2023-05-02T13:58:42.056Z,3.05
2023-05-02T14:01:06.960Z,3.38
2023-05-02T14:03:30.376Z,3.80
2023-05-02T14:05:53.628Z,3.70
2023-05-02T14:08:18.581Z,3.33
2023-05-02T14:10:41.780Z,3.83
2023-05-02T14:13:05.221Z,3.50
2023-05-02T14:15:28.465Z,3.47
2023-05-02T14:17:53.350Z,3.75
2023-05-02T14:20:16.673Z,3.65
2023-05-02T14:22:39.981Z,4.00
2023-05-02T14:25:03.208Z,4.18
2023-05-02T14:27:26.857Z,3.10
2023-05-02T14:29:50.412Z,3.83
2023-05-02T14:32:13.822Z,3.97
2023-05-02T14:34:38.406Z,4.18
2023-05-02T14:37:01.974Z,4.07
2023-05-02T14:39:25.662Z,3.55
2023-05-02T14:41:49.147Z,3.47
2023-05-02T14:44:12.466Z,3.13
2023-05-02T14:46:35.772Z,4.20
2023-05-02T14:48:59.470Z,3.80
2023-05-02T14:51:24.201Z,3.70
2023-05-02T14:53:49.493Z,3.72
2023-05-02T14:56:17.328Z,3.78
2023-05-02T14:58:40.582Z,3.55
2023-05-02T15:01:03.868Z,4.03
2023-05-02T15:03:27.418Z,3.85
2023-05-02T15:05:50.852Z,3.67
2023-05-02T15:08:15.965Z,4.03
2023-05-02T15:10:39.331Z,3.85
2023-05-02T15:13:03.836Z,3.53
2023-05-02T15:15:27.235Z,3.85
2023-05-02T15:17:50.486Z,3.90
2023-05-02T15:20:14.459Z,3.33
2023-05-02T15:22:37.698Z,4.10
2023-05-02T15:25:03.978Z,4.13
2023-05-02T15:27:28.598Z,4.07
2023-05-02T15:29:51.793Z,3.70
2023-05-02T15:32:19.267Z,3.95
2023-05-02T15:34:42.866Z,4.45
2023-05-02T15:37:06.465Z,4.32
2023-05-02T15:39:29.791Z,4.10
2023-05-02T15:41:54.558Z,3.97
2023-05-02T15:44:17.890Z,4.78
2023-05-02T15:46:46.568Z,4.43
2023-05-02T15:49:10.032Z,5.05
2023-05-02T15:51:33.364Z,4.25
2023-05-02T15:53:56.952Z,3.75
2023-05-02T15:56:21.238Z,4.53
2023-05-02T15:58:46.313Z,3.88
2023-05-02T16:01:09.591Z,3.78
2023-05-02T16:03:34.246Z,4.53
2023-05-02T16:05:59.215Z,3.97
2023-05-02T16:08:22.530Z,3.90
2023-05-02T16:10:45.773Z,3.97
2023-05-02T16:13:09.097Z,4.15
2023-05-02T16:15:33.815Z,3.90
2023-05-02T16:17:57.288Z,3.92
2023-05-02T16:20:21.040Z,4.38
2023-05-02T16:22:46.311Z,4.63
2023-05-02T16:25:10.005Z,4.07
2023-05-02T16:27:34.783Z,4.18
2023-05-02T16:29:58.047Z,4.30
2023-05-02T16:32:23.475Z,4.35
2023-05-02T16:34:46.736Z,4.82
2023-05-02T16:37:10.045Z,4.45
2023-05-02T16:39:34.244Z,4.30
2023-05-02T16:41:57.532Z,4.50
2023-05-02T16:44:20.946Z,4.18
2023-05-02T16:46:44.234Z,4.30
2023-05-02T16:49:09.055Z,3.88
2023-05-02T16:51:32.563Z,3.70
2023-05-02T16:53:55.766Z,4.70
2023-05-02T16:56:19.028Z,4.03
2023-05-02T16:58:42.336Z,4.13
2023-05-02T17:01:06.362Z,4.60
2023-05-02T17:03:30.082Z,4.40
2023-05-02T17:05:54.822Z,4.43
2023-05-02T17:08:18.040Z,3.95
2023-05-02T17:10:41.248Z,4.30
2023-05-02T17:13:04.511Z,4.20
2023-05-02T17:15:27.762Z,4.30
2023-05-02T17:17:51.131Z,4.50
2023-05-02T17:20:14.614Z,3.83
2023-05-02T17:22:41.080Z,4.13
2023-05-02T17:25:06.401Z,3.88
2023-05-02T17:27:29.719Z,4.40
2023-05-02T17:29:53.210Z,4.00
2023-05-02T17:32:16.450Z,4.25
2023-05-02T17:34:39.759Z,4.30
2023-05-02T17:37:03.053Z,4.22
2023-05-02T17:39:27.614Z,3.90
2023-05-02T17:41:50.964Z,3.65
2023-05-02T17:44:14.204Z,3.90
2023-05-02T17:46:38.399Z,4.57
2023-05-02T17:49:01.781Z,3.80
2023-05-02T17:51:25.119Z,4.30
2023-05-02T17:53:49.158Z,4.45
2023-05-02T17:56:15.963Z,4.30
2023-05-02T17:58:39.236Z,3.88
2023-05-02T18:01:08.564Z,4.63
2023-05-02T18:03:31.926Z,3.63
2023-05-02T18:05:55.225Z,4.22
2023-05-02T18:08:18.446Z,4.70
2023-05-02T18:10:42.745Z,3.92
2023-05-02T18:13:07.788Z,4.25
2023-05-02T18:15:31.250Z,3.65
2023-05-02T18:17:56.582Z,3.88
2023-05-02T18:20:19.989Z,3.72
2023-05-02T18:22:43.226Z,3.60
2023-05-02T18:25:07.768Z,4.20
2023-05-02T18:27:31.232Z,4.47
2023-05-02T18:29:55.988Z,4.28
2023-05-02T18:32:19.278Z,4.35
2023-05-02T18:34:42.620Z,4.25
2023-05-02T18:37:05.898Z,4.20
2023-05-02T18:39:31.763Z,4.70
2023-05-02T18:41:54.993Z,4.38
2023-05-02T18:44:18.267Z,3.55
2023-05-02T18:46:43.034Z,4.10
2023-05-02T18:49:08.990Z,3.97
2023-05-02T18:51:32.319Z,4.22
2023-05-02T18:53:55.614Z,3.90
2023-05-02T18:56:19.085Z,4.13
2023-05-02T18:58:42.985Z,4.22
2023-05-02T19:01:14.825Z,4.30
2023-05-02T19:03:39.864Z,3.67
2023-05-02T19:06:04.300Z,4.57
2023-05-02T19:08:27.558Z,4.20
2023-05-02T19:10:50.828Z,4.00
2023-05-02T19:13:14.573Z,4.10
2023-05-02T19:15:37.890Z,3.80
2023-05-02T19:18:01.216Z,3.58
2023-05-02T19:20:25.905Z,4.28
2023-05-02T19:22:49.866Z,4.50
2023-05-02T19:25:13.551Z,3.97
2023-05-02T19:27:36.930Z,4.38
2023-05-02T19:30:00.271Z,4.00
2023-05-02T19:32:24.007Z,4.47
2023-05-02T19:34:47.319Z,3.90
2023-05-02T19:37:11.924Z,4.38
2023-05-02T19:39:35.139Z,4.72
2023-05-02T19:41:59.055Z,4.30
2023-05-02T19:44:22.350Z,4.30
2023-05-02T19:46:46.106Z,4.00
2023-05-02T19:49:09.553Z,4.10
2023-05-02T19:51:34.267Z,4.35
2023-05-02T19:53:59.047Z,3.67
2023-05-02T19:56:25.310Z,3.90
2023-05-02T19:58:48.573Z,5.32
2023-05-02T20:01:11.957Z,4.90
2023-05-02T20:03:35.643Z,4.78
2023-05-02T20:05:59.203Z,4.53
2023-05-02T20:08:26.282Z,5.63
2023-05-02T20:10:50.881Z,5.20
2023-05-02T20:13:14.581Z,4.75
2023-05-02T20:15:38.206Z,4.93
2023-05-02T20:18:02.253Z,4.43
2023-05-02T20:20:26.015Z,4.28
2023-05-02T20:22:49.158Z,4.05
2023-05-02T20:25:12.882Z,4.05
2023-05-02T20:27:37.578Z,4.30
2023-05-02T20:30:01.319Z,4.55
2023-05-02T20:32:24.915Z,4.03
2023-05-02T20:34:48.260Z,4.03
2023-05-02T20:37:12.386Z,4.03
2023-05-02T20:39:36.366Z,3.70
2023-05-02T20:41:59.678Z,3.60
2023-05-02T20:44:28.432Z,3.83
2023-05-02T20:46:52.576Z,3.75
2023-05-02T20:49:16.071Z,3.70
2023-05-02T20:51:39.329Z,4.00
2023-05-02T20:54:02.607Z,3.67
2023-05-02T20:56:26.912Z,3.78
2023-05-02T20:58:50.192Z,3.50
2023-05-02T21:01:14.973Z,3.33
2023-05-02T21:03:40.710Z,3.92
2023-05-02T21:06:04.128Z,3.67
2023-05-02T21:08:27.389Z,4.03
2023-05-02T21:10:51.432Z,4.60
2023-05-02T21:13:14.821Z,4.60
2023-05-02T21:15:38.351Z,4.97
2023-05-02T21:18:04.660Z,4.95
2023-05-02T21:20:28.370Z,5.00
2023-05-02T21:22:51.596Z,5.07
2023-05-02T21:25:15.553Z,4.40
2023-05-02T21:27:40.003Z,4.07
2023-05-02T21:30:05.543Z,3.40
2023-05-02T21:32:29.963Z,3.28
2023-05-02T21:34:55.798Z,3.53
2023-05-02T21:37:19.886Z,3.13
2023-05-02T21:39:43.803Z,3.60
2023-05-02T21:42:08.600Z,3.45
2023-05-02T21:44:32.160Z,3.22
2023-05-02T21:46:55.795Z,3.88
2023-05-02T21:49:19.229Z,3.47
2023-05-02T21:51:44.649Z,4.00
2023-05-02T21:54:08.391Z,3.58
2023-05-02T21:56:31.684Z,3.95
2023-05-02T21:58:54.977Z,4.18
2023-05-02T22:01:18.249Z,3.35
2023-05-02T22:03:41.525Z,3.58
2023-05-02T22:06:06.429Z,3.63
2023-05-02T22:08:31.713Z,3.83
2023-05-02T22:10:55.081Z,3.72
2023-05-02T22:13:18.408Z,4.03
2023-05-02T22:15:45.344Z,3.83
2023-05-02T22:18:10.572Z,4.70
2023-05-02T22:20:33.917Z,4.60
2023-05-02T22:22:57.817Z,4.00
2023-05-02T22:25:24.016Z,4.70
2023-05-02T22:27:49.140Z,4.15
2023-05-02T22:30:12.912Z,4.13
2023-05-02T22:32:37.291Z,4.32
2023-05-02T22:35:01.145Z,3.95
2023-05-02T22:37:26.165Z,3.90
2023-05-02T22:39:49.359Z,4.43
2023-05-02T22:42:14.075Z,3.70
2023-05-02T22:44:50.459Z,4.10
2023-05-02T22:47:18.292Z,4.18
2023-05-02T22:49:42.910Z,3.95
2023-05-02T22:52:06.993Z,3.65
2023-05-02T22:54:30.299Z,4.22
2023-05-02T22:56:54.432Z,3.67
2023-05-02T22:59:19.159Z,3.58
2023-05-02T23:01:42.502Z,4.15
2023-05-02T23:04:06.037Z,4.10
2023-05-02T23:06:29.439Z,4.75
2023-05-02T23:08:52.757Z,4.05
2023-05-02T23:11:16.019Z,4.85
2023-05-02T23:13:39.335Z,4.32
2023-05-02T23:16:04.450Z,4.80
2023-05-02T23:18:27.873Z,4.97
2023-05-02T23:20:51.107Z,4.60
2023-05-02T23:23:14.521Z,4.30
2023-05-02T23:25:38.131Z,4.55
2023-05-02T23:28:01.350Z,4.45
2023-05-02T23:30:24.694Z,4.35
2023-05-02T23:32:49.543Z,4.10
2023-05-02T23:35:13.754Z,4.30
2023-05-02T23:37:37.121Z,4.63
2023-05-02T23:40:01.536Z,4.78
2023-05-02T23:42:25.276Z,4.95
2023-05-02T23:44:48.539Z,4.93
2023-05-02T23:47:12.308Z,4.95
2023-05-02T23:49:37.917Z,4.90
2023-05-02T23:52:02.591Z,4.78
2023-05-02T23:54:26.144Z,4.80
2023-05-02T23:56:49.452Z,4.88
2023-05-02T23:59:12.976Z,4.63
